Time;durP1;ratioP1;P1;durP2;ratioP2;P2;SDS_P1;SDS_P2;PMS_P1;PMS_P2;Temp;Humidity;BMP_temperature;BMP_pressure;BME280_temperature;BME280_humidity;BME280_pressure;Samples;Min_cycle;Max_cycle;Signal;HPM_P1;HPM_P2
2023/07/05 00:02:16;;;;;;;2.60;2.40;;;22.60;45.90;;;;;;20944;6705;117307;-75
2023/07/05 00:04:52;;;;;;;2.80;2.60;;;22.40;45.80;;;;;;20719;6705;277340;-75
2023/07/05 00:07:27;;;;;;;2.72;2.53;;;22.50;46.00;;;;;;20729;6705;338425;-75
2023/07/05 00:10:03;;;;;;;2.93;2.73;;;22.70;45.50;;;;;;20927;6720;116861;-75
2023/07/05 00:12:39;;;;;;;2.75;2.55;;;22.40;45.50;;;;;;20697;6720;305423;-76
2023/07/05 00:15:14;;;;;;;2.30;2.20;;;22.50;45.80;;;;;;20926;6705;117494;-75
2023/07/05 00:17:50;;;;;;;2.90;2.43;;;22.20;45.60;;;;;;20787;6703;275229;-75
2023/07/05 00:20:25;;;;;;;2.58;2.40;;;22.30;45.60;;;;;;20728;6718;334051;-75
2023/07/05 00:23:01;;;;;;;2.20;2.10;;;22.50;45.20;;;;;;20914;6724;116869;-75
2023/07/05 00:25:37;;;;;;;2.27;2.00;;;22.30;45.20;;;;;;20801;6738;117881;-75
2023/07/05 00:28:12;;;;;;;2.10;2.00;;;21.90;45.60;;;;;;20992;6703;117401;-75
2023/07/05 00:30:48;;;;;;;2.03;1.87;;;21.60;45.90;;;;;;20905;6724;117186;-75
2023/07/05 00:33:23;;;;;;;2.20;2.00;;;21.40;46.20;;;;;;20761;6709;294445;-75
2023/07/05 00:35:59;;;;;;;2.10;2.00;;;21.60;46.40;;;;;;20665;6712;311247;-75
2023/07/05 00:38:34;;;;;;;2.20;2.10;;;22.00;45.70;;;;;;20770;6709;276129;-75
2023/07/05 00:41:10;;;;;;;2.37;2.17;;;22.30;45.30;;;;;;20885;6732;117285;-75
2023/07/05 00:43:49;;;;;;;2.10;2.00;;;22.10;45.20;;;;;;20692;6731;289954;-75
2023/07/05 00:46:25;;;;;;;4.23;1.90;;;22.20;45.50;;;;;;20774;6729;120335;-75
2023/07/05 00:49:04;;;;;;;3.43;1.90;;;22.00;45.50;;;;;;20853;6738;116860;-75
2023/07/05 00:51:42;;;;;;;2.00;1.90;;;21.70;45.80;;;;;;20673;6744;308279;-75
2023/07/05 00:54:19;;;;;;;1.60;1.50;;;21.90;45.90;;;;;;20894;6721;122985;-75
2023/07/05 00:56:55;;;;;;;1.83;1.70;;;21.90;45.90;;;;;;20745;6708;117675;-75
2023/07/05 00:59:30;;;;;;;1.90;1.80;;;21.70;46.10;;;;;;21009;6692;118817;-75
2023/07/05 01:02:07;;;;;;;1.83;1.77;;;21.80;46.20;;;;;;20757;6710;276071;-75
2023/07/05 01:04:44;;;;;;;1.95;1.85;;;21.70;46.10;;;;;;20725;6709;307559;-74
2023/07/05 01:07:18;;;;;;;1.80;1.70;;;22.20;45.80;;;;;;20805;6692;289245;-75
2023/07/05 01:09:55;;;;;;;2.00;1.90;;;22.50;45.40;;;;;;20827;6685;275018;-75
2023/07/05 01:12:52;;;;;;;2.80;1.90;;;22.80;44.90;;;;;;20797;6692;314082;-75
2023/07/05 01:15:28;;;;;;;1.90;1.80;;;22.70;44.80;;;;;;20835;6722;117514;-75
2023/07/05 01:18:07;;;;;;;2.00;1.90;;;22.70;44.80;;;;;;20668;6733;278335;-74
2023/07/05 01:20:47;;;;;;;1.60;1.50;;;22.60;44.70;;;;;;20551;6780;119090;-76
2023/07/05 01:23:42;;;;;;;2.00;1.90;;;22.60;45.20;;;;;;20625;6736;305278;-75
2023/07/05 01:26:34;;;;;;;1.90;1.80;;;22.70;45.30;;;;;;20494;6741;280008;-75
2023/07/05 01:29:43;;;;;;;3.17;1.90;;;22.90;44.90;;;;;;20631;6728;306081;-75
2023/07/05 01:32:21;;;;;;;1.90;1.75;;;23.10;44.40;;;;;;20670;6724;334487;-75
2023/07/05 01:34:57;;;;;;;1.87;1.77;;;23.20;44.20;;;;;;20848;6718;119849;-76
2023/07/05 01:37:40;;;;;;;2.13;1.90;;;22.70;44.80;;;;;;20718;6721;307339;-76
2023/07/05 01:40:25;;;;;;;2.00;1.80;;;22.80;44.90;;;;;;20696;6724;305212;-75
2023/07/05 01:43:01;;;;;;;2.07;1.87;;;22.90;44.50;;;;;;20676;6728;276240;-76
2023/07/05 01:45:43;;;;;;;2.20;2.00;;;23.00;44.40;;;;;;20677;6709;282567;-75
2023/07/05 01:48:37;;;;;;;1.70;1.60;;;23.10;44.40;;;;;;20456;6774;280582;-75
2023/07/05 01:51:11;;;;;;;1.93;1.83;;;23.10;44.40;;;;;;20862;6735;119368;-75
2023/07/05 01:54:13;;;;;;;2.10;2.00;;;22.80;44.80;;;;;;20709;6723;275907;-76
2023/07/05 01:57:22;;;;;;;2.00;1.80;;;22.70;45.20;;;;;;20488;6735;337357;-76
2023/07/05 02:00:04;;;;;;;2.00;1.80;;;22.80;45.10;;;;;;20838;6748;116906;-76
2023/07/05 02:02:41;;;;;;;1.90;1.80;;;22.50;46.10;;;;;;20656;6736;276384;-77
2023/07/05 02:05:16;;;;;;;1.93;1.83;;;22.50;46.10;;;;;;20633;6729;296813;-76
2023/07/05 02:07:53;;;;;;;1.93;1.83;;;22.80;45.70;;;;;;20957;6714;121261;-76
2023/07/05 02:10:28;;;;;;;1.90;1.80;;;22.60;45.80;;;;;;20949;6714;116753;-76
2023/07/05 02:13:06;;;;;;;2.10;2.00;;;22.40;46.70;;;;;;20723;6714;296057;-76
2023/07/05 02:15:40;;;;;;;2.20;2.00;;;22.40;46.70;;;;;;20761;6749;117747;-76
2023/07/05 02:18:16;;;;;;;2.30;2.10;;;22.30;47.10;;;;;;20731;6720;303389;-76
2023/07/05 02:20:54;;;;;;;2.10;2.00;;;22.40;48.20;;;;;;20878;6734;117014;-76
2023/07/05 02:23:28;;;;;;;2.50;2.30;;;22.30;48.20;;;;;;20721;6723;276277;-76
2023/07/05 02:26:07;;;;;;;2.62;2.42;;;22.30;50.00;;;;;;20570;6723;311530;-76
2023/07/05 02:28:39;;;;;;;2.63;2.23;;;22.50;49.80;;;;;;20876;6740;119554;-80
2023/07/05 02:31:15;;;;;;;2.30;2.20;;;22.20;49.30;;;;;;20709;6724;339034;-76
2023/07/05 02:33:54;;;;;;;2.53;2.33;;;22.20;49.30;;;;;;20882;6736;119140;-76
2023/07/05 02:36:29;;;;;;;3.23;2.20;;;21.90;49.20;;;;;;20736;6736;117323;-76
2023/07/05 02:39:02;;;;;;;2.50;2.30;;;21.60;49.90;;;;;;20691;6732;277121;-76
2023/07/05 02:41:38;;;;;;;2.87;2.50;;;21.70;51.10;;;;;;20719;6721;337365;-76
2023/07/05 02:44:13;;;;;;;3.07;2.80;;;22.00;50.50;;;;;;20671;6733;306049;-76
2023/07/05 02:46:49;;;;;;;2.78;2.55;;;22.30;50.50;;;;;;20523;6730;327835;-77
2023/07/05 02:49:25;;;;;;;2.20;2.10;;;22.30;50.50;;;;;;21018;6692;117004;-76
2023/07/05 02:52:02;;;;;;;2.70;2.50;;;22.00;50.40;;;;;;20727;6718;308105;-76
2023/07/05 02:54:37;;;;;;;2.67;2.47;;;21.90;51.10;;;;;;20761;6706;275529;-76
2023/07/05 02:57:13;;;;;;;17.93;15.13;;;22.00;51.40;;;;;;20954;6706;118889;-76
2023/07/05 02:59:48;;;;;;;2.97;2.77;;;21.70;51.20;;;;;;20732;6717;276197;-76
2023/07/05 03:02:24;;;;;;;2.40;2.20;;;21.90;51.60;;;;;;20804;6691;305183;-76
2023/07/05 03:05:07;;;;;;;5.57;3.40;;;21.90;51.40;;;;;;20909;6711;117755;-75
2023/07/05 03:07:43;;;;;;;2.80;2.50;;;21.60;51.40;;;;;;20921;6721;124351;-75
2023/07/05 03:10:19;;;;;;;3.43;3.00;;;21.20;52.10;;;;;;20654;6742;277312;-75
2023/07/05 03:12:54;;;;;;;3.27;2.40;;;21.20;53.50;;;;;;20921;6718;117267;-75
2023/07/05 03:15:31;;;;;;;2.57;2.47;;;21.10;53.30;;;;;;20921;6703;117218;-79
2023/07/05 03:18:06;;;;;;;2.30;2.20;;;20.70;53.60;;;;;;20969;6705;116953;-78
2023/07/05 03:20:42;;;;;;;2.60;2.50;;;20.40;54.10;;;;;;20874;6733;119220;-78
2023/07/05 03:23:17;;;;;;;2.73;2.47;;;20.20;54.60;;;;;;20978;6707;117508;-77
2023/07/05 03:25:56;;;;;;;3.33;3.00;;;20.10;55.10;;;;;;20599;6722;312651;-77
2023/07/05 03:28:33;;;;;;;3.00;2.80;;;20.40;56.30;;;;;;20918;6726;116810;-77
2023/07/05 03:31:09;;;;;;;2.93;2.80;;;20.40;56.10;;;;;;20690;6725;305956;-77
2023/07/05 03:33:44;;;;;;;2.70;2.60;;;20.60;56.70;;;;;;20951;6720;123110;-77
2023/07/05 03:36:19;;;;;;;2.53;2.40;;;20.50;56.10;;;;;;20849;6703;123094;-76
2023/07/05 03:38:55;;;;;;;2.50;2.40;;;20.30;56.20;;;;;;20920;6720;122568;-77
2023/07/05 03:41:31;;;;;;;2.60;2.40;;;20.20;56.40;;;;;;20953;6714;122681;-77
2023/07/05 03:44:06;;;;;;;2.78;2.58;;;20.10;56.60;;;;;;20700;6727;310470;-77
2023/07/05 03:46:43;;;;;;;2.53;2.30;;;20.40;57.70;;;;;;20729;6729;117709;-76
2023/07/05 03:49:17;;;;;;;4.07;2.40;;;20.50;57.00;;;;;;20905;6729;117584;-77
2023/07/05 03:51:54;;;;;;;2.67;2.50;;;20.60;57.40;;;;;;20752;6712;280440;-80
2023/07/05 03:54:31;;;;;;;2.85;2.65;;;20.60;57.30;;;;;;20740;6712;339267;-77
2023/07/05 03:57:07;;;;;;;2.78;2.47;;;21.00;56.60;;;;;;20503;6784;340729;-77
2023/07/05 03:59:43;;;;;;;2.67;2.47;;;21.60;54.70;;;;;;20686;6729;277115;-77
2023/07/05 04:02:19;;;;;;;2.83;2.63;;;21.60;54.60;;;;;;20697;6729;306595;-77
2023/07/05 04:04:58;;;;;;;2.40;2.13;;;21.80;54.20;;;;;;20856;6729;117277;-77
2023/07/05 04:07:31;;;;;;;2.50;2.30;;;21.60;54.30;;;;;;20605;6728;276406;-77
2023/07/05 04:10:26;;;;;;;3.10;2.37;;;21.60;54.30;;;;;;20702;6729;338376;-77
2023/07/05 04:13:02;;;;;;;6.60;6.00;;;21.70;54.90;;;;;;20918;6727;117830;-77
2023/07/05 04:15:38;;;;;;;4.03;3.73;;;21.60;54.30;;;;;;20830;6729;119774;-77
2023/07/05 04:18:13;;;;;;;2.50;2.30;;;21.30;55.00;;;;;;20913;6729;116858;-78
2023/07/05 04:20:49;;;;;;;2.20;2.10;;;21.10;55.00;;;;;;20832;6729;120940;-78
2023/07/05 04:23:25;;;;;;;2.90;2.70;;;20.90;55.30;;;;;;20736;6714;276663;-77
2023/07/05 04:26:00;;;;;;;2.33;2.23;;;21.20;56.30;;;;;;20686;6702;319291;-76
2023/07/05 04:28:36;;;;;;;2.53;2.33;;;21.60;55.30;;;;;;20696;6729;314405;-77
2023/07/05 04:31:12;;;;;;;2.62;2.20;;;22.00;54.60;;;;;;20711;6720;309927;-78
2023/07/05 04:33:47;;;;;;;2.20;2.10;;;22.20;54.00;;;;;;20903;6728;121632;-77
2023/07/05 04:36:34;;;;;;;;;;;;;;;;;;;;;
2023/07/05 04:39:01;;;;;;;2.67;2.10;;;21.50;55.80;;;;;;20793;6743;120337;-77
2023/07/05 04:41:37;;;;;;;2.60;2.40;;;21.50;55.00;;;;;;20725;6715;305234;-77
2023/07/05 04:44:13;;;;;;;2.40;2.30;;;21.60;55.90;;;;;;20957;6715;117347;-77
2023/07/05 04:46:49;;;;;;;2.20;2.10;;;21.40;56.50;;;;;;20785;6709;127428;-77
2023/07/05 04:49:25;;;;;;;2.40;2.30;;;21.40;56.00;;;;;;20754;6710;287389;-76
2023/07/05 04:52:01;;;;;;;2.73;2.00;;;21.60;56.80;;;;;;20972;6706;116712;-81
2023/07/05 04:54:40;;;;;;;2.85;2.65;;;21.50;56.40;;;;;;20647;6749;276981;-77
2023/07/05 04:57:13;;;;;;;2.33;2.22;;;21.70;56.20;;;;;;20672;6729;309586;-78
2023/07/05 04:59:51;;;;;;;2.63;2.30;;;22.00;55.40;;;;;;20711;6729;292656;-76
2023/07/05 05:02:24;;;;;;;2.03;1.93;;;22.30;54.50;;;;;;20869;6744;119098;-79
2023/07/05 05:04:59;;;;;;;2.10;2.00;;;22.10;54.50;;;;;;20878;6726;117314;-80
2023/07/05 05:07:35;;;;;;;1.93;1.80;;;21.70;54.70;;;;;;20907;6724;117627;-80
2023/07/05 05:10:10;;;;;;;2.10;1.90;;;21.50;55.10;;;;;;20668;6735;301892;-80
2023/07/05 05:12:47;;;;;;;2.00;1.90;;;21.60;55.50;;;;;;20859;6736;117152;-83
2023/07/05 05:15:23;;;;;;;2.00;1.90;;;21.90;55.00;;;;;;20600;6736;308730;-76
2023/07/05 05:18:02;;;;;;;2.58;2.03;;;21.90;55.40;;;;;;20758;6706;334240;-77
2023/07/05 05:20:35;;;;;;;2.10;1.90;;;22.20;55.40;;;;;;20700;6728;278765;-78
2023/07/05 05:23:10;;;;;;;2.08;1.90;;;22.50;54.80;;;;;;20691;6728;306501;-77
2023/07/05 05:25:46;;;;;;;2.00;1.70;;;22.70;54.60;;;;;;20824;6720;117159;-79
2023/07/05 05:28:21;;;;;;;1.90;1.80;;;22.50;54.50;;;;;;20925;6720;116874;-78
2023/07/05 05:31:00;;;;;;;1.93;1.83;;;22.20;55.00;;;;;;20695;6725;277679;-79
2023/07/05 05:33:37;;;;;;;2.30;2.10;;;22.30;55.60;;;;;;20722;6720;276537;-76
2023/07/05 05:36:14;;;;;;;2.67;2.17;;;23.00;55.50;;;;;;20554;6717;337369;-75
2023/07/05 05:38:49;;;;;;;2.57;2.27;;;23.00;55.50;;;;;;20931;6718;118973;-75
2023/07/05 05:41:25;;;;;;;2.80;2.60;;;23.00;55.50;;;;;;20729;6718;280956;-76
2023/07/05 05:44:02;;;;;;;2.58;2.37;;;23.20;54.20;;;;;;20704;6721;335977;-76
2023/07/05 05:46:37;;;;;;;2.43;2.27;;;23.50;53.80;;;;;;20805;6714;118390;-78
2023/07/05 05:49:13;;;;;;;2.70;2.50;;;23.50;54.60;;;;;;20735;6709;274940;-76
2023/07/05 05:51:48;;;;;;;2.78;2.58;;;23.60;54.10;;;;;;20753;6713;304432;-76
2023/07/05 05:54:24;;;;;;;2.50;2.40;;;24.00;53.60;;;;;;20974;6709;116771;-77
2023/07/05 05:57:00;;;;;;;2.70;2.50;;;23.90;53.40;;;;;;20730;6709;120136;-76
2023/07/05 05:59:35;;;;;;;3.77;2.63;;;23.60;53.70;;;;;;20924;6729;117016;-79
2023/07/05 06:02:11;;;;;;;3.00;2.80;;;23.50;54.00;;;;;;20684;6733;280707;-78
2023/07/05 06:04:46;;;;;;;2.85;2.70;;;23.70;53.40;;;;;;20690;6718;304722;-77
2023/07/05 06:07:22;;;;;;;2.80;2.43;;;24.00;53.20;;;;;;20698;6730;276264;-78
2023/07/05 06:09:58;;;;;;;2.60;2.50;;;24.40;52.50;;;;;;20832;6692;279053;-78
2023/07/05 06:12:35;;;;;;;2.90;2.63;;;24.60;51.10;;;;;;20999;6700;119029;-79
2023/07/05 06:15:12;;;;;;;2.83;2.63;;;24.60;51.50;;;;;;20722;6701;306807;-78
2023/07/05 06:17:47;;;;;;;2.60;2.40;;;24.80;51.10;;;;;;20786;6701;278704;-80
2023/07/05 06:20:28;;;;;;;2.70;2.50;;;25.50;48.90;;;;;;20801;6695;334704;-79
2023/07/05 06:23:03;;;;;;;2.47;2.37;;;26.10;48.10;;;;;;20758;6707;406827;-79
2023/07/05 06:25:37;;;;;;;2.70;2.60;;;26.50;46.80;;;;;;20706;6706;311124;-78
2023/07/05 06:28:17;;;;;;;2.47;2.37;;;26.60;45.70;;;;;;21038;6692;120500;-82
2023/07/05 06:30:53;;;;;;;2.70;2.50;;;26.20;46.30;;;;;;20810;6688;303473;-80
2023/07/05 06:33:28;;;;;;;2.63;2.43;;;25.90;46.80;;;;;;20835;6688;274688;-80
2023/07/05 06:36:05;;;;;;;2.97;2.78;;;25.90;46.20;;;;;;20697;6688;283518;-80
2023/07/05 06:38:44;;;;;;;2.93;2.73;;;25.90;46.20;;;;;;20768;6706;305346;-79
2023/07/05 06:41:18;;;;;;;2.40;2.30;;;26.60;47.30;;;;;;20794;6701;279317;-80
2023/07/05 06:43:54;;;;;;;2.62;2.40;;;26.60;46.60;;;;;;20783;6703;300705;-81
2023/07/05 06:46:31;;;;;;;2.65;2.47;;;26.90;45.50;;;;;;20674;6695;305893;-81
2023/07/05 06:49:06;;;;;;;2.92;2.72;;;27.00;44.70;;;;;;20806;6690;334428;-80
2023/07/05 06:51:41;;;;;;;3.00;2.80;;;26.90;44.70;;;;;;20788;6703;319015;-80
2023/07/05 06:54:17;;;;;;;3.00;2.80;;;26.80;45.30;;;;;;20718;6720;302666;-80
2023/07/05 06:56:55;;;;;;;2.53;2.40;;;26.00;47.00;;;;;;20727;6720;119954;-81
2023/07/05 06:59:32;;;;;;;2.37;2.27;;;25.90;47.00;;;;;;21001;6706;120008;-80
2023/07/05 07:02:04;;;;;;;2.67;2.50;;;25.30;48.10;;;;;;20779;6706;275796;-79
2023/07/05 07:04:41;;;;;;;3.10;2.50;;;24.90;49.10;;;;;;20964;6707;117225;-80
2023/07/05 07:07:16;;;;;;;2.13;2.03;;;24.80;49.00;;;;;;20941;6706;116776;-81
2023/07/05 07:09:52;;;;;;;2.60;2.40;;;24.50;49.40;;;;;;20804;6696;279208;-81
2023/07/05 07:12:30;;;;;;;3.97;2.30;;;24.60;48.70;;;;;;21017;6694;116107;-80
2023/07/05 07:15:04;;;;;;;2.63;2.53;;;24.40;49.90;;;;;;20651;6724;307863;-79
2023/07/05 07:17:44;;;;;;;2.80;2.60;;;24.50;49.40;;;;;;20771;6703;333716;-80
2023/07/05 07:20:16;;;;;;;2.60;2.40;;;24.50;49.40;;;;;;20775;6703;333942;-79
2023/07/05 07:22:53;;;;;;;1.60;1.50;;;24.60;49.20;;;;;;20912;6718;119703;-80
2023/07/05 07:25:32;;;;;;;1.53;1.00;;;24.20;49.10;;;;;;20966;6688;117321;-79
2023/07/05 07:28:07;;;;;;;1.20;1.10;;;23.60;49.30;;;;;;20836;6684;274761;-79
2023/07/05 07:30:40;;;;;;;1.30;1.10;;;23.70;49.00;;;;;;20811;6692;304161;-78
2023/07/05 07:33:16;;;;;;;1.47;1.17;;;23.70;48.90;;;;;;20813;6692;296332;-79
2023/07/05 07:35:51;;;;;;;1.73;1.27;;;23.80;49.20;;;;;;20636;6712;307248;-80
2023/07/05 07:38:27;;;;;;;2.47;1.17;;;23.80;49.10;;;;;;20947;6709;116659;-79
2023/07/05 07:41:04;;;;;;;1.20;1.10;;;23.40;49.40;;;;;;20815;6676;284689;-79
2023/07/05 07:43:39;;;;;;;1.63;1.10;;;23.10;51.00;;;;;;21029;6691;117056;-79
2023/07/05 07:46:16;;;;;;;1.33;1.20;;;22.60;52.50;;;;;;20624;6706;304155;-79
2023/07/05 07:48:51;;;;;;;1.50;1.12;;;22.60;52.50;;;;;;20705;6721;299786;-79
2023/07/05 07:51:27;;;;;;;1.47;1.00;;;22.70;53.20;;;;;;20931;6722;117096;-79
2023/07/05 07:54:03;;;;;;;1.83;1.30;;;22.40;53.10;;;;;;20914;6724;117025;-79
2023/07/05 07:56:38;;;;;;;1.53;1.20;;;22.00;53.70;;;;;;20583;6713;310925;-79
2023/07/05 07:59:14;;;;;;;1.30;1.17;;;22.00;55.50;;;;;;20757;6701;304469;-79
2023/07/05 08:01:49;;;;;;;1.13;1.13;;;22.20;55.40;;;;;;20930;6721;117331;-78
2023/07/05 08:04:26;;;;;;;1.60;1.40;;;22.00;55.10;;;;;;20708;6721;278514;-78
2023/07/05 08:07:00;;;;;;;1.52;1.40;;;22.10;55.30;;;;;;20552;6711;278228;-77
2023/07/05 08:09:37;;;;;;;1.43;1.33;;;22.30;55.30;;;;;;20671;6733;305481;-78
2023/07/05 08:12:12;;;;;;;1.30;1.00;;;22.30;55.30;;;;;;21010;6696;122527;-77
2023/07/05 08:14:48;;;;;;;1.27;1.10;;;22.10;55.30;;;;;;20940;6707;122544;-78
2023/07/05 08:17:23;;;;;;;1.73;1.40;;;21.70;55.60;;;;;;21018;6693;117138;-77
2023/07/05 08:19:59;;;;;;;2.30;1.50;;;21.30;56.20;;;;;;20788;6701;280839;-77
2023/07/05 08:22:34;;;;;;;2.03;1.30;;;21.40;57.40;;;;;;21023;6689;116634;-77
2023/07/05 08:25:10;;;;;;;1.40;1.30;;;21.30;57.10;;;;;;20869;6720;119149;-77
2023/07/05 08:27:46;;;;;;;1.92;1.58;;;21.00;57.20;;;;;;20694;6726;310801;-77
2023/07/05 08:30:22;;;;;;;1.90;1.40;;;21.00;57.80;;;;;;20993;6701;117362;-77
2023/07/05 08:32:57;;;;;;;1.73;1.30;;;20.90;57.70;;;;;;20932;6716;120418;-78
2023/07/05 08:35:32;;;;;;;2.20;1.77;;;20.60;58.10;;;;;;20636;6731;337145;-77
2023/07/05 08:38:09;;;;;;;1.67;1.58;;;20.80;59.80;;;;;;20770;6706;320183;-77
2023/07/05 08:40:44;;;;;;;1.40;1.30;;;21.20;59.70;;;;;;20943;6716;117464;-77
2023/07/05 08:43:29;;;;;;;2.10;1.40;;;21.20;59.40;;;;;;20880;6736;117611;-77
2023/07/05 08:46:04;;;;;;;1.77;1.60;;;21.10;59.90;;;;;;20412;6793;307738;-76
2023/07/05 08:48:40;;;;;;;1.87;1.77;;;21.80;58.60;;;;;;20789;6696;304212;-77
2023/07/05 08:51:16;;;;;;;2.00;1.80;;;21.80;58.50;;;;;;20705;6717;276617;-76
2023/07/05 08:53:52;;;;;;;2.00;1.80;;;22.10;57.90;;;;;;20782;6698;276142;-75
2023/07/05 08:56:31;;;;;;;2.13;1.90;;;22.40;57.40;;;;;;20791;6718;118265;-76
2023/07/05 08:59:28;;;;;;;2.07;1.87;;;22.10;57.20;;;;;;20700;6718;305272;-76
2023/07/05 09:02:06;;;;;;;1.90;1.80;;;22.20;56.80;;;;;;20715;6721;305686;-75
2023/07/05 09:04:41;;;;;;;2.17;1.80;;;22.10;56.70;;;;;;20721;6714;305564;-76
2023/07/05 09:07:43;;;;;;;2.70;1.37;;;22.20;56.70;;;;;;20880;6736;119697;-76
2023/07/05 09:10:19;;;;;;;1.93;1.80;;;22.00;57.20;;;;;;20651;6739;316655;-76
2023/07/05 09:13:15;;;;;;;1.60;1.50;;;22.10;58.40;;;;;;20884;6729;120371;-76
2023/07/05 09:16:14;;;;;;;1.40;1.40;;;22.10;58.90;;;;;;20827;6729;120078;-76
2023/07/05 09:19:26;;;;;;;1.63;1.53;;;21.90;59.30;;;;;;20875;6728;118133;-75
2023/07/05 09:22:01;;;;;;;1.62;1.52;;;21.70;59.50;;;;;;20687;6729;295251;-76
2023/07/05 09:24:39;;;;;;;1.90;1.80;;;22.10;59.00;;;;;;20738;6726;295880;-76
2023/07/05 09:27:24;;;;;;;1.80;1.70;;;22.60;58.90;;;;;;20633;6737;309701;-79
2023/07/05 09:30:10;;;;;;;2.00;1.73;;;23.10;57.40;;;;;;20565;6774;336003;-75
2023/07/05 09:32:46;;;;;;;1.40;1.30;;;23.60;56.60;;;;;;20770;6764;117471;-75
2023/07/05 09:35:21;;;;;;;1.98;1.80;;;23.70;56.20;;;;;;20610;6785;312722;-76
2023/07/05 09:38:04;;;;;;;1.70;1.60;;;24.40;57.80;;;;;;20692;6712;325272;-76
2023/07/05 09:40:39;;;;;;;1.63;1.53;;;24.40;57.80;;;;;;20887;6734;68955;-76
2023/07/05 09:43:12;;;;;;;2.00;1.80;;;24.60;56.80;;;;;;20715;6758;305508;-76
2023/07/05 09:45:48;;;;;;;1.90;1.80;;;24.80;55.50;;;;;;20649;6701;339290;-76
2023/07/05 09:48:23;;;;;;;2.00;1.90;;;25.20;54.10;;;;;;20976;6702;120562;-78
2023/07/05 09:51:03;;;;;;;2.00;1.57;;;25.30;54.20;;;;;;20843;6732;117179;-78
2023/07/05 09:53:44;;;;;;;1.57;1.40;;;25.20;54.30;;;;;;20932;6717;116983;-79
2023/07/05 09:56:27;;;;;;;1.60;1.50;;;25.20;54.40;;;;;;20784;6702;117369;-78
2023/07/05 09:59:11;;;;;;;2.30;1.47;;;25.10;54.50;;;;;;20956;6711;116980;-80
2023/07/05 10:01:53;;;;;;;1.90;1.80;;;25.10;54.40;;;;;;21074;6668;116579;-81
2023/07/05 10:04:27;;;;;;;1.77;1.70;;;25.10;54.70;;;;;;20877;6667;278720;-79
2023/07/05 10:07:04;;;;;;;1.80;1.70;;;26.10;50.30;;;;;;20674;6723;309522;-75
2023/07/05 10:09:40;;;;;;;2.23;1.80;;;26.00;50.10;;;;;;21088;6667;120069;-77
2023/07/05 10:12:16;;;;;;;3.33;2.00;;;26.30;50.40;;;;;;20850;6723;308370;-78
2023/07/05 10:14:55;;;;;;;2.50;1.90;;;26.70;51.00;;;;;;20946;6696;121071;-76
2023/07/05 10:17:41;;;;;;;2.40;1.70;;;26.70;50.30;;;;;;20881;6667;279846;-76
2023/07/05 10:20:27;;;;;;;2.00;1.87;;;27.00;49.40;;;;;;20876;6667;303096;-76
2023/07/05 10:23:10;;;;;;;2.70;2.10;;;27.40;48.10;;;;;;20863;6667;304418;-76
2023/07/05 10:25:45;;;;;;;2.10;2.00;;;27.70;47.30;;;;;;20785;6667;280200;-75
2023/07/05 10:28:21;;;;;;;2.30;2.20;;;28.00;45.90;;;;;;20780;6687;314660;-74
2023/07/05 10:30:57;;;;;;;1.80;1.70;;;28.10;44.50;;;;;;20896;6720;116925;-76
2023/07/05 10:33:36;;;;;;;1.70;1.60;;;28.00;45.60;;;;;;20925;6720;117745;-75
2023/07/05 10:36:12;;;;;;;2.10;1.97;;;27.80;44.00;;;;;;20671;6692;278072;-76
2023/07/05 10:38:48;;;;;;;2.20;2.10;;;27.80;44.00;;;;;;20740;6708;305461;-76
2023/07/05 10:41:30;;;;;;;2.30;2.20;;;28.00;43.50;;;;;;20711;6723;276280;-76
2023/07/05 10:44:19;;;;;;;2.97;2.30;;;28.20;43.20;;;;;;20701;6721;276355;-76
2023/07/05 10:46:54;;;;;;;2.20;2.10;;;28.40;42.20;;;;;;20299;6846;292361;-76
2023/07/05 10:49:27;;;;;;;2.73;2.60;;;28.60;41.50;;;;;;20702;6717;281175;-77
2023/07/05 10:52:04;;;;;;;2.35;2.25;;;28.80;41.10;;;;;;20764;6698;304744;-77
2023/07/05 10:54:59;;;;;;;2.20;2.10;;;28.90;40.60;;;;;;20955;6701;117654;-75
2023/07/05 10:57:34;;;;;;;2.47;2.37;;;28.80;41.80;;;;;;20733;6705;341932;-76
2023/07/05 11:00:45;;;;;;;2.70;2.60;;;28.80;41.10;;;;;;20928;6701;117226;-79
2023/07/05 11:03:30;;;;;;;2.67;2.57;;;28.70;41.20;;;;;;20863;6725;117605;-74
2023/07/05 11:06:06;;;;;;;3.43;2.80;;;28.20;41.30;;;;;;20271;6837;121644;-75
2023/07/05 11:08:41;;;;;;;2.70;2.60;;;27.80;41.60;;;;;;20819;6730;67111;-75
2023/07/05 11:11:27;;;;;;;3.60;3.40;;;27.60;42.00;;;;;;20805;6680;304723;-74
2023/07/05 11:14:03;;;;;;;3.50;3.30;;;27.70;38.70;;;;;;20726;6715;304832;-75
2023/07/05 11:16:39;;;;;;;3.07;2.97;;;28.00;37.70;;;;;;20621;6699;281941;-75
2023/07/05 11:19:13;;;;;;;3.20;3.00;;;28.30;36.30;;;;;;20652;6711;317253;-76
2023/07/05 11:21:49;;;;;;;3.47;3.27;;;28.40;34.70;;;;;;20743;6714;275399;-75
2023/07/05 11:24:25;;;;;;;3.03;2.80;;;28.50;35.00;;;;;;20966;6695;117654;-74
2023/07/05 11:27:00;;;;;;;2.60;2.50;;;28.30;35.40;;;;;;20759;6708;117491;-76
2023/07/05 11:29:43;;;;;;;2.97;2.77;;;28.10;33.30;;;;;;20781;6697;277048;-75
2023/07/05 11:32:21;;;;;;;3.00;2.80;;;28.30;31.60;;;;;;20799;6695;304568;-76
2023/07/05 11:34:58;;;;;;;2.63;2.40;;;28.30;31.60;;;;;;20923;6695;123120;-79
2023/07/05 11:37:39;;;;;;;2.80;2.60;;;28.20;32.90;;;;;;20987;6692;117951;-76
2023/07/05 11:40:22;;;;;;;2.90;2.70;;;28.00;34.30;;;;;;21010;6692;116635;-76
2023/07/05 11:42:55;;;;;;;3.10;2.90;;;27.90;35.00;;;;;;20647;6748;121602;-76
2023/07/05 11:45:34;;;;;;;2.90;2.80;;;27.80;34.80;;;;;;20735;6692;306361;-76
2023/07/05 11:48:06;;;;;;;2.50;2.37;;;28.00;31.90;;;;;;20942;6763;119916;-75
2023/07/05 11:50:41;;;;;;;2.83;2.73;;;28.00;31.90;;;;;;20635;6751;281512;-76
2023/07/05 11:53:17;;;;;;;3.20;3.00;;;28.10;31.00;;;;;;20782;6692;276537;-79
2023/07/05 11:55:54;;;;;;;3.62;3.10;;;28.30;30.10;;;;;;20697;6692;307535;-78
2023/07/05 11:58:29;;;;;;;2.70;2.57;;;28.50;29.90;;;;;;21016;6692;119860;-78
2023/07/05 12:01:05;;;;;;;2.80;2.70;;;28.40;31.10;;;;;;20961;6692;153839;-77
2023/07/05 12:03:41;;;;;;;2.97;2.87;;;28.10;31.90;;;;;;20828;6681;275241;-81
2023/07/05 12:06:22;;;;;;;2.70;2.60;;;28.20;31.20;;;;;;20892;6692;117184;-79
2023/07/05 12:09:03;;;;;;;3.10;2.90;;;28.10;32.30;;;;;;20766;6692;299388;-76
2023/07/05 12:11:39;;;;;;;3.00;2.90;;;28.20;29.90;;;;;;20984;6692;117138;-79
2023/07/05 12:14:15;;;;;;;3.10;2.97;;;28.10;31.10;;;;;;20801;6692;309030;-78
2023/07/05 12:16:52;;;;;;;3.15;3.05;;;28.10;29.50;;;;;;20614;6692;309740;-79
2023/07/05 12:19:30;;;;;;;3.00;2.90;;;28.30;29.60;;;;;;20976;6707;117452;-79
2023/07/05 12:22:06;;;;;;;2.83;2.63;;;27.90;30.90;;;;;;20942;6709;117291;-78
2023/07/05 12:24:44;;;;;;;2.73;2.63;;;27.90;30.80;;;;;;20901;6710;116984;-78
2023/07/05 12:27:23;;;;;;;2.70;2.60;;;27.60;31.00;;;;;;20892;6728;116927;-82
2023/07/05 12:30:00;;;;;;;2.83;2.73;;;27.40;31.00;;;;;;20938;6722;117262;-79
2023/07/05 12:32:36;;;;;;;3.10;2.90;;;27.00;30.90;;;;;;20605;6748;340301;-81
2023/07/05 12:35:15;;;;;;;2.90;2.80;;;27.00;30.40;;;;;;20844;6731;117033;-81
2023/07/05 12:37:50;;;;;;;2.80;2.60;;;26.90;31.70;;;;;;20955;6713;115976;-80
2023/07/05 12:40:30;;;;;;;3.00;2.83;;;26.80;32.30;;;;;;20879;6729;117254;-78
2023/07/05 12:43:08;;;;;;;4.47;3.08;;;26.70;32.50;;;;;;20571;6759;336528;-83
2023/07/05 12:45:43;;;;;;;3.10;2.90;;;27.00;31.50;;;;;;20814;6730;116155;-77
2023/07/05 12:48:29;;;;;;;3.20;3.00;;;27.10;31.60;;;;;;20765;6702;304589;-81
2023/07/05 12:51:06;;;;;;;3.15;3.00;;;27.40;31.00;;;;;;20800;6684;333421;-80
2023/07/05 12:53:42;;;;;;;3.30;3.10;;;27.80;29.20;;;;;;20874;6669;303258;-81
2023/07/05 12:56:18;;;;;;;3.58;3.37;;;28.00;29.70;;;;;;20587;6706;342394;-82
2023/07/05 12:58:53;;;;;;;4.23;2.70;;;28.10;29.40;;;;;;20930;6702;120566;-82
2023/07/05 13:01:37;;;;;;;3.40;3.20;;;27.90;29.70;;;;;;20708;6718;301450;-81
2023/07/05 13:04:12;;;;;;;3.50;3.03;;;27.80;28.50;;;;;;20731;6718;279373;-81
2023/07/05 13:06:48;;;;;;;3.13;3.00;;;28.00;28.50;;;;;;20534;6711;278717;-84
2023/07/05 13:09:37;;;;;;;2.83;2.70;;;28.00;28.00;;;;;;20798;6706;309006;-83
2023/07/05 13:12:12;;;;;;;3.37;3.10;;;28.10;28.20;;;;;;20635;6743;307095;-83
2023/07/05 13:14:58;;;;;;;2.70;2.50;;;28.10;29.00;;;;;;21011;6687;115716;-80
2023/07/05 13:17:35;;;;;;;3.07;2.57;;;28.00;29.50;;;;;;20986;6702;116864;-84
2023/07/05 13:20:15;;;;;;;2.70;2.50;;;27.50;29.60;;;;;;21048;6676;116601;-81
2023/07/05 13:22:57;;;;;;;3.10;2.90;;;27.10;29.90;;;;;;20802;6682;333757;-82
2023/07/05 13:25:33;;;;;;;3.00;2.80;;;27.10;29.00;;;;;;20698;6756;335549;-81
2023/07/05 13:28:08;;;;;;;3.17;2.97;;;27.40;28.10;;;;;;20893;6733;117339;-79
2023/07/05 13:30:44;;;;;;;2.50;2.30;;;27.30;29.00;;;;;;20881;6730;117387;-79
2023/07/05 13:33:19;;;;;;;2.77;2.60;;;27.00;29.40;;;;;;20859;6743;116214;-81